createdAt,value
2018-09-03T00:00:20.740Z,54.97
2018-09-03T00:02:56.672Z,54.97
2018-09-03T00:06:03.288Z,54.96
2018-09-03T00:08:39.153Z,55.12
2018-09-03T00:11:15.152Z,55.55
2018-09-03T00:13:50.980Z,55.06
2018-09-03T00:16:26.974Z,55.28
2018-09-03T00:19:03.054Z,55.83
2018-09-03T00:21:39.063Z,55.53
2018-09-03T00:24:14.947Z,55.42
2018-09-03T00:26:50.880Z,56.00
2018-09-03T00:29:26.919Z,55.75
2018-09-03T00:32:07.905Z,56.28
2018-09-03T00:34:48.826Z,56.27
2018-09-03T00:37:29.965Z,56.27
2018-09-03T00:40:11.170Z,56.12
2018-09-03T00:43:54.829Z,56.14
2018-09-03T00:46:35.669Z,56.30
2018-09-03T00:49:11.569Z,56.46
2018-09-03T00:51:47.408Z,56.66
2018-09-03T00:54:23.442Z,56.83
2018-09-03T00:56:59.224Z,56.79
2018-09-03T00:59:35.387Z,56.82
2018-09-03T01:02:11.338Z,56.99
2018-09-03T01:04:47.300Z,57.59
2018-09-03T01:07:23.181Z,57.68
2018-09-03T01:09:59.102Z,57.27
2018-09-03T01:12:35.053Z,57.41
2018-09-03T01:15:10.939Z,57.18
2018-09-03T01:17:46.873Z,57.69
2018-09-03T01:20:22.873Z,57.78
2018-09-03T01:22:58.726Z,57.62
2018-09-03T01:25:34.612Z,57.75
2018-09-03T01:28:10.396Z,58.15
2018-09-03T01:30:46.211Z,58.13
2018-09-03T01:33:21.980Z,57.74
2018-09-03T01:35:57.904Z,57.88
2018-09-03T01:38:33.877Z,57.94
2018-09-03T01:41:09.856Z,57.94
2018-09-03T01:43:46.006Z,58.34
2018-09-03T01:46:21.885Z,58.36
2018-09-03T01:48:57.923Z,57.88
2018-09-03T01:51:33.970Z,57.84
2018-09-03T01:54:09.720Z,58.04
2018-09-03T01:56:45.628Z,57.54
2018-09-03T01:59:21.549Z,57.77
2018-09-03T02:01:57.419Z,57.47
2018-09-03T02:04:33.364Z,57.37
2018-09-03T02:07:09.264Z,58.45
2018-09-03T02:09:45.188Z,58.42
2018-09-03T02:12:21.096Z,58.73
2018-09-03T02:14:57.080Z,58.65
2018-09-03T02:17:33.169Z,58.95
2018-09-03T02:20:09.077Z,58.75
2018-09-03T02:22:44.849Z,58.73
2018-09-03T02:25:20.762Z,58.82
2018-09-03T02:27:56.629Z,59.14
2018-09-03T02:30:32.594Z,58.97
2018-09-03T02:33:08.528Z,59.02
2018-09-03T02:35:44.400Z,59.46
2018-09-03T02:38:20.457Z,59.29
2018-09-03T02:40:56.359Z,59.36
2018-09-03T02:43:32.425Z,59.63
2018-09-03T02:46:08.420Z,59.45
2018-09-03T02:48:44.252Z,59.34
2018-09-03T02:51:20.237Z,59.88
2018-09-03T02:53:56.161Z,59.68
2018-09-03T02:56:32.116Z,59.74
2018-09-03T02:59:08.149Z,59.85
2018-09-03T03:01:43.948Z,59.65
2018-09-03T03:04:19.871Z,59.45
2018-09-03T03:06:55.775Z,59.39
2018-09-03T03:09:31.704Z,59.73
2018-09-03T03:12:07.653Z,59.64
2018-09-03T03:14:43.727Z,60.10
2018-09-03T03:17:20.048Z,60.75
2018-09-03T03:19:56.089Z,60.78
2018-09-03T03:22:32.040Z,60.89
2018-09-03T03:25:08.191Z,60.69
2018-09-03T03:27:44.082Z,60.33
2018-09-03T03:30:20.080Z,60.23
2018-09-03T03:32:55.965Z,60.65
2018-09-03T03:35:31.915Z,60.86
2018-09-03T03:38:07.917Z,60.99
2018-09-03T03:40:43.878Z,60.83
2018-09-03T03:43:19.872Z,60.91
2018-09-03T03:45:55.902Z,61.18
2018-09-03T03:48:31.971Z,61.34
2018-09-03T03:51:07.823Z,60.92
2018-09-03T03:53:43.772Z,60.76
2018-09-03T03:56:19.657Z,60.72
2018-09-03T03:58:55.743Z,60.52
2018-09-03T04:01:31.648Z,60.41
2018-09-03T04:04:07.725Z,60.89
2018-09-03T04:06:43.563Z,60.73
2018-09-03T04:09:19.455Z,60.63
2018-09-03T04:11:55.224Z,60.91
2018-09-03T04:14:31.192Z,60.74
2018-09-03T04:17:07.227Z,60.59
2018-09-03T04:19:43.091Z,60.94
2018-09-03T04:22:19.129Z,60.99
2018-09-03T04:24:55.339Z,61.12
2018-09-03T04:27:31.200Z,60.40
2018-09-03T04:30:07.231Z,60.37
2018-09-03T04:32:43.263Z,60.28
2018-09-03T04:35:19.123Z,60.14
2018-09-03T04:37:55.124Z,60.50
2018-09-03T04:40:31.047Z,60.28
2018-09-03T04:43:06.885Z,60.52
2018-09-03T04:45:42.749Z,60.60
2018-09-03T04:48:18.692Z,61.17
2018-09-03T04:50:54.573Z,61.44
2018-09-03T04:53:30.374Z,61.81
2018-09-03T04:56:06.337Z,61.25
2018-09-03T04:58:42.197Z,61.59
2018-09-03T05:01:18.879Z,61.24
2018-09-03T05:03:54.796Z,61.90
2018-09-03T05:06:30.788Z,61.46
2018-09-03T05:09:07.498Z,62.14
2018-09-03T05:11:43.492Z,62.39
2018-09-03T05:14:19.596Z,61.93
2018-09-03T05:16:55.756Z,62.38
2018-09-03T05:19:31.846Z,62.02
2018-09-03T05:22:07.767Z,62.20
2018-09-03T05:24:43.578Z,62.57
2018-09-03T05:27:19.634Z,62.55
2018-09-03T05:29:55.742Z,62.85
2018-09-03T05:32:31.760Z,62.75
2018-09-03T05:35:07.920Z,62.87
2018-09-03T05:37:43.715Z,62.99
2018-09-03T05:40:19.739Z,63.10
2018-09-03T05:42:55.856Z,62.97
2018-09-03T05:45:31.749Z,63.08
2018-09-03T05:48:07.648Z,62.95
2018-09-03T05:50:43.790Z,63.59
2018-09-03T05:53:19.592Z,63.41
2018-09-03T05:55:55.884Z,63.31
2018-09-03T05:58:31.905Z,62.99
2018-09-03T06:01:07.906Z,63.17
2018-09-03T06:03:43.922Z,63.11
2018-09-03T06:06:19.930Z,63.54
2018-09-03T06:08:55.781Z,63.68
2018-09-03T06:11:31.759Z,63.88
2018-09-03T06:14:07.961Z,63.95
2018-09-03T06:16:43.911Z,64.14
2018-09-03T06:19:19.879Z,63.86
2018-09-03T06:21:55.828Z,63.88
2018-09-03T06:24:31.902Z,63.67
2018-09-03T06:27:07.783Z,63.49
2018-09-03T06:29:43.592Z,63.88
2018-09-03T06:32:19.542Z,63.94
2018-09-03T06:34:55.516Z,63.69
2018-09-03T06:37:31.492Z,62.71
2018-09-03T06:40:07.559Z,62.70
2018-09-03T06:42:43.724Z,62.90
2018-09-03T06:45:20.015Z,62.92
2018-09-03T06:47:55.969Z,62.39
2018-09-03T06:50:31.896Z,62.21
2018-09-03T06:53:07.946Z,62.29
2018-09-03T06:55:43.790Z,62.16
2018-09-03T06:58:19.804Z,62.27
2018-09-03T07:00:55.749Z,62.30
2018-09-03T07:03:31.673Z,62.45
2018-09-03T07:06:07.686Z,62.17
2018-09-03T07:08:43.583Z,62.64
2018-09-03T07:11:19.523Z,61.90
2018-09-03T07:13:55.457Z,61.76
2018-09-03T07:16:31.318Z,61.87
2018-09-03T07:19:07.295Z,61.87
2018-09-03T07:21:43.227Z,61.57
2018-09-03T07:24:19.111Z,60.95
2018-09-03T07:26:55.104Z,61.65
2018-09-03T07:29:31.068Z,61.32
2018-09-03T07:32:06.781Z,62.21
2018-09-03T07:34:42.803Z,62.22
2018-09-03T07:37:18.678Z,62.65
2018-09-03T07:39:54.509Z,61.91
2018-09-03T07:42:30.972Z,61.94
2018-09-03T07:45:07.024Z,62.41
2018-09-03T07:47:42.954Z,62.68
2018-09-03T07:50:18.878Z,63.12
2018-09-03T07:52:54.772Z,63.00
2018-09-03T07:55:30.718Z,62.52
2018-09-03T07:58:07.660Z,62.96
2018-09-03T08:00:43.577Z,63.75
2018-09-03T08:03:19.393Z,64.91
2018-09-03T08:05:55.299Z,65.18
2018-09-03T08:08:31.268Z,65.30
2018-09-03T08:11:07.514Z,65.81
2018-09-03T08:13:43.724Z,65.83
2018-09-03T08:16:19.497Z,65.50
2018-09-03T08:18:55.597Z,65.76
2018-09-03T08:21:31.423Z,66.08
2018-09-03T08:24:07.539Z,65.85
2018-09-03T08:26:43.591Z,67.11
2018-09-03T08:29:19.589Z,66.58
2018-09-03T08:31:55.608Z,66.14
2018-09-03T08:34:31.543Z,66.73
2018-09-03T08:37:07.767Z,66.74
2018-09-03T08:39:43.756Z,66.78
2018-09-03T08:42:19.833Z,67.20
2018-09-03T08:44:55.669Z,66.81
2018-09-03T08:47:31.602Z,66.73
2018-09-03T08:50:07.699Z,66.49
2018-09-03T08:52:43.646Z,67.04
2018-09-03T08:55:19.657Z,67.78
2018-09-03T08:57:55.648Z,67.10
2018-09-03T09:00:31.540Z,66.75
2018-09-03T09:03:11.631Z,67.45
2018-09-03T09:05:47.617Z,67.48
2018-09-03T09:08:23.576Z,69.05
2018-09-03T09:10:59.533Z,68.42
2018-09-03T09:13:35.465Z,68.23
2018-09-03T09:16:11.463Z,67.91
2018-09-03T09:18:47.495Z,68.36
2018-09-03T09:21:23.320Z,68.47
2018-09-03T09:23:59.269Z,67.76
2018-09-03T09:26:35.385Z,67.31
2018-09-03T09:29:11.309Z,66.23
2018-09-03T09:31:47.340Z,66.15
2018-09-03T09:34:23.201Z,66.54
2018-09-03T09:36:59.489Z,66.87
2018-09-03T09:39:35.534Z,66.52
2018-09-03T09:42:11.503Z,66.93
2018-09-03T09:44:47.339Z,67.54
2018-09-03T09:47:23.286Z,67.16
2018-09-03T09:49:59.355Z,66.93
2018-09-03T09:52:35.203Z,66.61
2018-09-03T09:55:11.096Z,66.48
2018-09-03T09:57:46.947Z,66.01
2018-09-03T10:00:27.879Z,65.47
2018-09-03T10:03:03.810Z,65.55
2018-09-03T10:05:39.764Z,65.39
2018-09-03T10:08:15.768Z,64.30
2018-09-03T10:10:51.760Z,64.23
2018-09-03T10:13:27.725Z,63.82
2018-09-03T10:16:03.540Z,63.03
2018-09-03T10:18:39.527Z,62.30
2018-09-03T10:21:15.392Z,61.91
2018-09-03T10:23:51.351Z,61.87
2018-09-03T10:26:27.240Z,61.61
2018-09-03T10:29:03.259Z,61.21
2018-09-03T10:31:39.250Z,61.68
2018-09-03T10:34:15.026Z,60.27
2018-09-03T10:36:50.932Z,60.48
2018-09-03T10:39:26.950Z,58.94
2018-09-03T10:42:02.757Z,57.99
2018-09-03T10:44:38.732Z,58.29
2018-09-03T10:47:14.675Z,56.83
2018-09-03T10:49:50.659Z,56.02
2018-09-03T10:52:26.620Z,54.43
2018-09-03T10:55:02.496Z,53.62
2018-09-03T10:57:38.262Z,52.50
2018-09-03T11:00:14.893Z,51.69
2018-09-03T11:02:50.952Z,49.85
2018-09-03T11:05:26.979Z,49.50
2018-09-03T11:08:02.909Z,48.26
2018-09-03T11:10:38.809Z,48.88
2018-09-03T11:13:14.862Z,49.23
2018-09-03T11:15:50.901Z,49.87
2018-09-03T11:18:28.369Z,49.77
2018-09-03T11:21:04.335Z,49.83
2018-09-03T11:23:40.408Z,50.07
2018-09-03T11:26:16.433Z,50.47
2018-09-03T11:28:52.575Z,50.95
2018-09-03T11:31:28.401Z,51.53
2018-09-03T11:34:04.316Z,51.74
2018-09-03T11:36:40.089Z,51.37
2018-09-03T11:39:16.093Z,51.31
2018-09-03T11:41:51.948Z,51.20
2018-09-03T11:44:27.856Z,50.84
2018-09-03T11:47:03.992Z,50.83
2018-09-03T11:49:40.110Z,50.64
2018-09-03T11:52:15.966Z,50.61
2018-09-03T11:54:51.918Z,50.78
2018-09-03T11:57:27.973Z,50.46
2018-09-03T12:00:04.034Z,51.01
2018-09-03T12:02:40.093Z,51.07
2018-09-03T12:05:16.025Z,50.80
2018-09-03T12:07:52.170Z,50.98
2018-09-03T12:10:28.123Z,50.47
2018-09-03T12:13:04.053Z,50.23
2018-09-03T12:15:44.073Z,50.45
2018-09-03T12:18:20.095Z,50.53
2018-09-03T12:20:55.970Z,51.58
2018-09-03T12:23:32.004Z,51.19
2018-09-03T12:26:08.685Z,51.38
2018-09-03T12:28:44.647Z,51.41
2018-09-03T12:31:20.644Z,51.53
2018-09-03T12:33:56.585Z,51.79
2018-09-03T12:36:32.616Z,51.38
2018-09-03T12:39:11.004Z,51.34
2018-09-03T12:41:47.048Z,50.70
2018-09-03T12:44:23.034Z,50.62
2018-09-03T12:46:58.953Z,51.04
2018-09-03T12:49:34.982Z,50.25
2018-09-03T12:52:10.876Z,50.46
2018-09-03T12:54:46.776Z,50.28
2018-09-03T12:57:23.168Z,50.68
2018-09-03T13:00:05.147Z,50.05
2018-09-03T13:02:39.421Z,50.38
2018-09-03T13:05:11.136Z,50.73
2018-09-03T13:07:47.002Z,50.85
2018-09-03T13:10:23.124Z,51.12
2018-09-03T13:12:59.373Z,51.14
2018-09-03T13:15:35.304Z,51.08
2018-09-03T13:18:11.333Z,50.85
2018-09-03T13:20:47.374Z,51.89
2018-09-03T13:23:23.424Z,51.74
2018-09-03T13:25:59.468Z,51.50
2018-09-03T13:28:36.040Z,51.37
2018-09-03T13:31:12.112Z,51.61
2018-09-03T13:33:48.552Z,50.97
2018-09-03T13:36:24.504Z,51.13
2018-09-03T13:39:00.444Z,51.48
2018-09-03T13:41:36.399Z,51.70
2018-09-03T13:44:12.338Z,51.24
2018-09-03T13:46:48.296Z,50.99
2018-09-03T13:49:24.203Z,50.08
2018-09-03T13:52:00.340Z,49.36
2018-09-03T13:54:36.133Z,49.46
2018-09-03T13:57:12.085Z,48.33
2018-09-03T13:59:48.080Z,49.04
2018-09-03T14:02:23.895Z,49.79
2018-09-03T14:04:59.759Z,50.82
2018-09-03T14:07:35.731Z,51.14
2018-09-03T14:10:11.653Z,51.90
2018-09-03T14:12:47.621Z,52.04
2018-09-03T14:15:23.665Z,53.24
2018-09-03T14:17:59.635Z,53.58
2018-09-03T14:20:35.775Z,54.32
2018-09-03T14:23:11.703Z,54.64
2018-09-03T14:25:47.463Z,55.89
2018-09-03T14:28:23.536Z,56.83
2018-09-03T14:30:59.600Z,58.41
2018-09-03T14:33:35.315Z,59.41
2018-09-03T14:36:11.242Z,60.55
2018-09-03T14:38:47.080Z,61.34
2018-09-03T14:41:22.996Z,62.29
2018-09-03T14:43:59.003Z,62.43
2018-09-03T14:46:34.985Z,62.00
2018-09-03T14:49:10.964Z,62.23
2018-09-03T14:51:47.097Z,63.77
2018-09-03T14:54:23.221Z,62.69
2018-09-03T14:56:59.167Z,63.57
2018-09-03T14:59:35.176Z,62.84
2018-09-03T15:02:12.009Z,62.96
2018-09-03T15:04:48.036Z,63.05
2018-09-03T15:07:23.813Z,62.69
2018-09-03T15:09:59.797Z,61.84
2018-09-03T15:12:35.739Z,61.62
2018-09-03T15:15:11.520Z,62.32
2018-09-03T15:17:47.531Z,62.25
2018-09-03T15:20:23.486Z,60.97
2018-09-03T15:22:59.480Z,61.35
2018-09-03T15:25:35.419Z,60.89
2018-09-03T15:28:11.468Z,61.07
2018-09-03T15:30:47.452Z,61.33
2018-09-03T15:33:23.373Z,61.38
2018-09-03T15:35:59.363Z,61.25
2018-09-03T15:38:35.379Z,61.09
2018-09-03T15:41:11.273Z,61.99
2018-09-03T15:43:47.106Z,62.66
2018-09-03T15:46:22.975Z,62.34
2018-09-03T15:48:59.354Z,62.47
2018-09-03T15:51:35.400Z,62.68
2018-09-03T15:54:11.449Z,63.13
2018-09-03T15:56:47.339Z,63.04
2018-09-03T15:59:23.326Z,63.47
2018-09-03T16:01:59.249Z,63.36
2018-09-03T16:04:35.188Z,63.34
2018-09-03T16:07:11.224Z,63.60
2018-09-03T16:09:47.065Z,63.95
2018-09-03T16:12:23.125Z,63.88
2018-09-03T16:14:58.928Z,63.92
2018-09-03T16:17:34.869Z,64.11
2018-09-03T16:20:10.900Z,63.46
2018-09-03T16:22:47.072Z,63.79
2018-09-03T16:25:22.940Z,64.19
2018-09-03T16:27:58.835Z,64.50
2018-09-03T16:30:34.752Z,63.84
2018-09-03T16:33:10.703Z,63.75
2018-09-03T16:35:46.629Z,64.05
2018-09-03T16:38:22.520Z,63.60
2018-09-03T16:40:58.520Z,63.39
2018-09-03T16:43:34.328Z,63.99
2018-09-03T16:46:10.282Z,63.39
2018-09-03T16:48:46.463Z,63.92
2018-09-03T16:51:22.507Z,64.48
2018-09-03T16:53:58.357Z,63.69
2018-09-03T16:56:34.357Z,63.84
2018-09-03T16:59:10.371Z,63.54
2018-09-03T17:01:46.413Z,64.67
2018-09-03T17:04:22.347Z,63.75
2018-09-03T17:06:58.297Z,63.96
2018-09-03T17:09:34.338Z,64.32
2018-09-03T17:12:10.220Z,64.89
2018-09-03T17:14:46.209Z,64.59
2018-09-03T17:17:22.170Z,65.28
2018-09-03T17:19:58.040Z,64.58
2018-09-03T17:22:34.052Z,65.15
2018-09-03T17:25:09.981Z,65.26
2018-09-03T17:27:45.912Z,64.99
2018-09-03T17:30:21.981Z,65.20
2018-09-03T17:32:57.889Z,64.79
2018-09-03T17:35:33.892Z,64.86
2018-09-03T17:38:09.936Z,65.18
2018-09-03T17:40:45.912Z,65.47
2018-09-03T17:43:21.944Z,65.92
2018-09-03T17:45:57.988Z,65.34
2018-09-03T17:48:33.990Z,65.19
2018-09-03T17:51:09.972Z,65.70
2018-09-03T17:53:45.843Z,65.45
2018-09-03T17:56:21.918Z,66.22
2018-09-03T17:58:58.019Z,65.86
2018-09-03T18:01:34.135Z,65.68
2018-09-03T18:04:10.092Z,66.02
2018-09-03T18:06:46.108Z,66.33
2018-09-03T18:09:22.252Z,67.16
2018-09-03T18:11:58.275Z,67.76
2018-09-03T18:14:34.221Z,67.59
2018-09-03T18:17:10.268Z,67.75
2018-09-03T18:19:46.226Z,68.01
2018-09-03T18:22:22.294Z,68.19
2018-09-03T18:24:58.179Z,67.81
2018-09-03T18:27:34.261Z,67.79
2018-09-03T18:30:10.440Z,68.25
2018-09-03T18:32:46.600Z,68.63
2018-09-03T18:35:22.689Z,69.13
2018-09-03T18:37:58.581Z,68.93
2018-09-03T18:40:34.675Z,69.66
2018-09-03T18:43:10.846Z,69.85
2018-09-03T18:45:47.067Z,69.80
2018-09-03T18:48:23.055Z,69.39
2018-09-03T18:50:59.107Z,69.58
2018-09-03T18:53:35.314Z,68.83
2018-09-03T18:56:14.089Z,68.66
2018-09-03T18:58:50.042Z,69.17
2018-09-03T19:01:25.992Z,69.33
2018-09-03T19:04:01.926Z,69.63
2018-09-03T19:06:37.737Z,70.15
2018-09-03T19:09:13.886Z,69.93
2018-09-03T19:11:49.868Z,69.63
2018-09-03T19:14:25.912Z,69.38
2018-09-03T19:17:01.895Z,69.46
2018-09-03T19:19:37.903Z,68.84
2018-09-03T19:22:13.933Z,68.90
2018-09-03T19:24:49.907Z,69.79
2018-09-03T19:27:25.800Z,69.69
2018-09-03T19:30:02.020Z,70.44
2018-09-03T19:32:37.850Z,70.78
2018-09-03T19:35:13.856Z,70.50
2018-09-03T19:37:49.936Z,70.59
2018-09-03T19:40:25.952Z,71.32
2018-09-03T19:43:01.992Z,71.15
2018-09-03T19:45:37.819Z,71.72
2018-09-03T19:48:13.660Z,71.79
2018-09-03T19:50:49.665Z,71.58
2018-09-03T19:53:25.595Z,71.89
2018-09-03T19:56:01.682Z,72.04
2018-09-03T19:58:37.624Z,72.52
2018-09-03T20:01:16.846Z,72.27
2018-09-03T20:04:08.932Z,73.11
2018-09-03T20:06:45.164Z,72.58
2018-09-03T20:09:21.256Z,72.54
2018-09-03T20:11:57.316Z,72.64
2018-09-03T20:14:33.355Z,73.17
2018-09-03T20:17:09.361Z,72.87
2018-09-03T20:19:45.351Z,73.34
2018-09-03T20:22:21.344Z,73.09
2018-09-03T20:24:57.343Z,73.28
2018-09-03T20:27:33.207Z,73.31
2018-09-03T20:30:09.345Z,73.63
2018-09-03T20:32:45.314Z,73.69
2018-09-03T20:35:21.266Z,74.10
2018-09-03T20:37:57.144Z,73.87
2018-09-03T20:40:33.095Z,74.22
2018-09-03T20:43:39.995Z,74.01
2018-09-03T20:46:15.924Z,73.88
2018-09-03T20:48:52.135Z,73.96
2018-09-03T20:51:28.623Z,74.23
2018-09-03T20:54:04.761Z,73.89
2018-09-03T20:56:40.798Z,74.11
2018-09-03T20:59:16.951Z,74.30
2018-09-03T21:01:52.851Z,74.55
2018-09-03T21:04:28.875Z,74.46
2018-09-03T21:07:04.885Z,74.79
2018-09-03T21:09:41.032Z,74.55
2018-09-03T21:12:17.155Z,74.67
2018-09-03T21:14:52.944Z,75.18
2018-09-03T21:17:28.898Z,75.26
2018-09-03T21:20:05.568Z,75.00
2018-09-03T21:22:41.534Z,75.19
2018-09-03T21:25:17.550Z,74.73
2018-09-03T21:27:53.635Z,74.95
2018-09-03T21:30:29.701Z,75.31
2018-09-03T21:33:05.762Z,75.11
2018-09-03T21:35:41.632Z,74.84
2018-09-03T21:38:17.611Z,74.61
2018-09-03T21:40:53.408Z,75.13
2018-09-03T21:43:29.375Z,75.00
2018-09-03T21:46:05.380Z,74.95
2018-09-03T21:48:41.310Z,74.87
2018-09-03T21:51:17.243Z,74.97
2018-09-03T21:53:53.149Z,75.28
2018-09-03T21:56:28.936Z,75.36
2018-09-03T21:59:04.816Z,75.23
2018-09-03T22:01:40.511Z,75.37
2018-09-03T22:04:16.485Z,75.46
2018-09-03T22:06:52.383Z,76.08
2018-09-03T22:09:28.330Z,75.78
2018-09-03T22:12:04.268Z,76.01
2018-09-03T22:14:40.057Z,76.00
2018-09-03T22:17:15.964Z,76.70
2018-09-03T22:19:51.990Z,76.15
2018-09-03T22:22:27.929Z,76.47
2018-09-03T22:25:03.798Z,77.21
2018-09-03T22:27:39.686Z,77.33
2018-09-03T22:30:15.616Z,77.32
2018-09-03T22:32:51.464Z,77.10
2018-09-03T22:35:27.733Z,77.36
2018-09-03T22:38:03.804Z,77.61
2018-09-03T22:40:39.569Z,77.38
2018-09-03T22:43:15.520Z,77.12
2018-09-03T22:45:51.376Z,77.12
2018-09-03T22:48:27.373Z,77.39
2018-09-03T22:51:03.209Z,77.23
2018-09-03T22:53:39.130Z,77.66
2018-09-03T22:56:15.057Z,77.57
2018-09-03T22:58:50.953Z,77.45
2018-09-03T23:01:26.918Z,77.95
2018-09-03T23:04:02.916Z,77.54
2018-09-03T23:06:38.924Z,77.21
2018-09-03T23:09:14.684Z,77.64
2018-09-03T23:11:50.716Z,78.03
2018-09-03T23:14:26.579Z,78.33
2018-09-03T23:17:02.575Z,78.33
2018-09-03T23:19:38.551Z,78.39
2018-09-03T23:22:14.575Z,78.28
2018-09-03T23:24:50.504Z,78.33
2018-09-03T23:27:26.560Z,78.54
2018-09-03T23:30:02.577Z,78.88
2018-09-03T23:32:38.484Z,78.52
2018-09-03T23:35:14.316Z,78.93
2018-09-03T23:37:50.359Z,79.38
2018-09-03T23:40:26.287Z,79.94
2018-09-03T23:43:02.392Z,80.10
2018-09-03T23:45:38.223Z,79.36
2018-09-03T23:48:14.097Z,79.02
2018-09-03T23:50:50.076Z,78.96
2018-09-03T23:53:25.884Z,78.79
2018-09-03T23:56:01.791Z,78.98
2018-09-03T23:58:37.704Z,79.25
